createdAt,value
2018-01-24T00:00:24.713Z,20.68
2018-01-24T00:00:56.338Z,20.67
2018-01-24T00:01:27.965Z,20.66
2018-01-24T00:01:59.589Z,20.64
2018-01-24T00:02:31.218Z,20.65
2018-01-24T00:03:02.843Z,20.65
2018-01-24T00:03:34.465Z,20.68
2018-01-24T00:04:06.145Z,20.68
2018-01-24T00:04:37.777Z,20.64
2018-01-24T00:05:09.398Z,20.63
2018-01-24T00:05:41.025Z,20.63
2018-01-24T00:06:12.645Z,20.62
2018-01-24T00:06:44.265Z,20.63
2018-01-24T00:07:15.885Z,20.63
2018-01-24T00:07:47.510Z,20.63
2018-01-24T00:08:19.130Z,20.63
2018-01-24T00:08:50.749Z,20.62
2018-01-24T00:09:22.434Z,20.64
2018-01-24T00:09:54.057Z,20.63
2018-01-24T00:10:25.678Z,20.62
2018-01-24T00:10:57.301Z,20.65
2018-01-24T00:11:28.929Z,20.68
2018-01-24T00:12:00.573Z,20.68
2018-01-24T00:12:32.198Z,20.68
2018-01-24T00:13:03.817Z,20.72
2018-01-24T00:13:35.437Z,20.72
2018-01-24T00:14:07.058Z,20.70
2018-01-24T00:14:38.913Z,20.72
2018-01-24T00:15:10.537Z,20.72
2018-01-24T00:15:42.157Z,20.70
2018-01-24T00:16:13.777Z,20.76
2018-01-24T00:16:45.397Z,20.76
2018-01-24T00:17:17.018Z,20.77
2018-01-24T00:17:48.645Z,20.81
2018-01-24T00:18:20.278Z,20.81
2018-01-24T00:18:51.938Z,20.83
2018-01-24T00:19:23.590Z,20.85
2018-01-24T00:19:55.273Z,20.84
2018-01-24T00:20:26.898Z,20.85
2018-01-24T00:20:58.525Z,20.87
2018-01-24T00:21:30.146Z,20.87
2018-01-24T00:22:01.774Z,20.88
2018-01-24T00:22:33.402Z,20.91
2018-01-24T00:23:05.022Z,20.90
2018-01-24T00:23:36.653Z,20.93
2018-01-24T00:24:08.274Z,20.91
2018-01-24T00:24:39.901Z,20.91
2018-01-24T00:25:11.593Z,20.89
2018-01-24T00:25:43.214Z,20.88
2018-01-24T00:26:14.837Z,20.88
2018-01-24T00:26:46.466Z,20.91
2018-01-24T00:27:18.086Z,20.91
2018-01-24T00:27:49.718Z,21.00
2018-01-24T00:28:21.339Z,21.01
2018-01-24T00:28:52.970Z,21.00
2018-01-24T00:29:24.610Z,21.00
2018-01-24T00:29:56.237Z,20.94
2018-01-24T00:30:27.917Z,20.95
2018-01-24T00:30:59.539Z,20.94
2018-01-24T00:31:31.156Z,20.91
2018-01-24T00:32:02.783Z,20.88
2018-01-24T00:32:34.410Z,20.87
2018-01-24T00:33:06.038Z,20.85
2018-01-24T00:33:37.657Z,20.87
2018-01-24T00:34:09.281Z,20.86
2018-01-24T00:34:40.910Z,20.83
2018-01-24T00:35:12.538Z,20.88
2018-01-24T00:35:44.225Z,20.85
2018-01-24T00:36:15.850Z,20.82
2018-01-24T00:36:47.478Z,20.84
2018-01-24T00:37:19.102Z,20.83
2018-01-24T00:37:50.734Z,20.81
2018-01-24T00:38:22.354Z,20.80
2018-01-24T00:38:53.982Z,20.78
2018-01-24T00:39:25.610Z,20.76
2018-01-24T00:39:57.238Z,20.76
2018-01-24T00:40:28.865Z,20.73
2018-01-24T00:41:00.578Z,20.75
2018-01-24T00:41:32.201Z,20.74
2018-01-24T00:42:03.826Z,20.73
2018-01-24T00:42:35.446Z,20.74
2018-01-24T00:43:07.065Z,20.73
2018-01-24T00:43:38.689Z,20.73
2018-01-24T00:44:10.310Z,20.73
2018-01-24T00:44:41.929Z,20.73
2018-01-24T00:45:13.549Z,20.73
2018-01-24T00:45:45.170Z,20.73
2018-01-24T00:46:16.863Z,20.74
2018-01-24T00:46:48.482Z,20.73
2018-01-24T00:47:20.105Z,20.72
2018-01-24T00:47:51.729Z,20.71
2018-01-24T00:48:23.352Z,20.73
2018-01-24T00:48:54.974Z,20.72
2018-01-24T00:49:26.602Z,20.72
2018-01-24T00:49:58.221Z,20.70
2018-01-24T00:50:29.845Z,20.69
2018-01-24T00:51:01.466Z,20.67
2018-01-24T00:51:33.145Z,20.68
2018-01-24T00:52:04.775Z,20.68
2018-01-24T00:52:36.394Z,20.68
2018-01-24T00:53:08.014Z,20.67
2018-01-24T00:53:39.638Z,20.66
2018-01-24T00:54:11.258Z,20.65
2018-01-24T00:54:42.879Z,20.67
2018-01-24T00:55:14.506Z,20.67
2018-01-24T00:55:46.134Z,20.64
2018-01-24T00:56:17.753Z,20.63
2018-01-24T00:56:49.378Z,20.66
2018-01-24T00:57:20.998Z,20.65
2018-01-24T00:57:52.620Z,20.66
2018-01-24T00:58:24.242Z,20.63
2018-01-24T00:58:55.866Z,20.61
2018-01-24T00:59:27.485Z,20.60
2018-01-24T00:59:59.106Z,20.61
2018-01-24T01:00:30.739Z,20.60
2018-01-24T01:01:02.362Z,20.60
2018-01-24T01:01:33.981Z,20.58
2018-01-24T01:02:05.665Z,20.60
2018-01-24T01:02:37.294Z,20.60
2018-01-24T01:03:08.918Z,20.59
2018-01-24T01:03:40.546Z,20.58
2018-01-24T01:04:12.173Z,20.57
2018-01-24T01:04:43.801Z,20.55
2018-01-24T01:05:15.472Z,20.56
2018-01-24T01:05:47.094Z,20.54
2018-01-24T01:06:18.721Z,20.55
2018-01-24T01:06:50.346Z,20.55
2018-01-24T01:07:22.036Z,20.57
2018-01-24T01:07:53.658Z,20.54
2018-01-24T01:08:25.277Z,20.55
2018-01-24T01:08:56.901Z,20.55
2018-01-24T01:09:28.530Z,20.54
2018-01-24T01:10:00.158Z,20.54
2018-01-24T01:10:31.782Z,20.54
2018-01-24T01:11:03.410Z,20.54
2018-01-24T01:11:35.038Z,20.54
2018-01-24T01:12:06.657Z,20.56
2018-01-24T01:12:38.338Z,20.53
2018-01-24T01:13:09.966Z,20.52
2018-01-24T01:13:41.594Z,20.51
2018-01-24T01:14:13.214Z,20.54
2018-01-24T01:14:44.846Z,20.52
2018-01-24T01:15:16.469Z,20.52
2018-01-24T01:15:48.089Z,20.52
2018-01-24T01:16:19.713Z,20.54
2018-01-24T01:16:51.333Z,20.53
2018-01-24T01:17:22.961Z,20.52
2018-01-24T01:17:54.649Z,20.53
2018-01-24T01:18:26.269Z,20.54
2018-01-24T01:18:57.898Z,20.56
2018-01-24T01:19:29.522Z,20.58
2018-01-24T01:20:01.150Z,20.57
2018-01-24T01:20:32.773Z,20.57
2018-01-24T01:21:04.398Z,20.56
2018-01-24T01:21:36.021Z,20.57
2018-01-24T01:23:33.293Z,20.56
2018-01-24T01:24:04.940Z,20.55
2018-01-24T01:24:36.637Z,20.56
2018-01-24T01:25:08.284Z,20.57
2018-01-24T01:25:39.976Z,20.57
2018-01-24T01:26:11.701Z,20.58
2018-01-24T01:26:43.424Z,20.59
2018-01-24T01:27:15.068Z,20.58
2018-01-24T01:27:46.673Z,20.55
2018-01-24T01:28:18.313Z,20.57
2018-01-24T01:28:49.905Z,20.57
2018-01-24T01:29:21.550Z,20.62
2018-01-24T01:29:53.141Z,20.60
2018-01-24T01:30:24.734Z,20.61
2018-01-24T01:30:56.350Z,20.63
2018-01-24T01:31:27.969Z,20.62
2018-01-24T01:31:59.589Z,20.62
2018-01-24T01:32:31.213Z,20.65
2018-01-24T01:33:02.834Z,20.64
2018-01-24T01:33:34.501Z,20.68
2018-01-24T01:34:06.165Z,20.69
2018-01-24T01:34:37.786Z,20.70
2018-01-24T01:35:09.406Z,20.72
2018-01-24T01:35:41.030Z,20.71
2018-01-24T01:36:12.658Z,20.68
2018-01-24T01:36:44.278Z,20.70
2018-01-24T01:37:15.900Z,20.70
2018-01-24T01:40:46.802Z,20.73
2018-01-24T01:41:18.421Z,20.72
2018-01-24T01:44:41.751Z,20.74
2018-01-24T01:45:13.579Z,20.72
2018-01-24T01:45:45.402Z,20.63
2018-01-24T01:46:17.013Z,20.72
2018-01-24T01:46:48.610Z,20.72
2018-01-24T01:47:20.201Z,20.73
2018-01-24T01:47:51.794Z,20.72
2018-01-24T01:48:23.390Z,20.72
2018-01-24T01:48:55.009Z,20.72
2018-01-24T01:49:26.632Z,20.71
2018-01-24T01:49:58.302Z,20.71
2018-01-24T01:50:29.926Z,20.71
2018-01-24T01:51:01.549Z,20.72
2018-01-24T01:51:33.217Z,20.75
2018-01-24T01:52:04.866Z,20.76
2018-01-24T01:52:36.509Z,20.73
2018-01-24T01:53:08.162Z,20.74
2018-01-24T01:53:39.805Z,20.77
2018-01-24T01:54:11.438Z,20.77
2018-01-24T01:54:43.085Z,20.76
2018-01-24T01:55:14.705Z,20.78
2018-01-24T01:55:46.329Z,20.77
2018-01-24T01:56:17.950Z,20.77
2018-01-24T01:56:49.598Z,20.75
2018-01-24T01:57:21.225Z,20.74
2018-01-24T01:57:52.846Z,20.74
2018-01-24T01:58:24.474Z,20.74
2018-01-24T01:58:56.098Z,20.76
2018-01-24T01:59:27.785Z,20.74
2018-01-24T01:59:59.429Z,20.72
2018-01-24T02:00:31.065Z,20.72
2018-01-24T02:01:02.706Z,20.71
2018-01-24T02:01:34.334Z,20.71
2018-01-24T02:02:05.954Z,20.73
2018-01-24T02:02:37.578Z,20.72
2018-01-24T02:03:09.206Z,20.71
2018-01-24T02:03:40.834Z,20.72
2018-01-24T02:04:12.453Z,20.73
2018-01-24T02:04:44.114Z,20.72
2018-01-24T02:05:15.782Z,20.74
2018-01-24T02:05:47.450Z,20.74
2018-01-24T02:06:19.078Z,20.72
2018-01-24T02:06:50.889Z,20.71
2018-01-24T02:07:22.536Z,20.71
2018-01-24T02:07:54.181Z,20.70
2018-01-24T02:08:25.806Z,20.71
2018-01-24T02:08:57.429Z,20.70
2018-01-24T02:09:29.054Z,20.68
2018-01-24T02:10:00.673Z,20.70
2018-01-24T02:10:32.293Z,20.67
2018-01-24T02:11:03.958Z,20.67
2018-01-24T02:11:35.790Z,20.70
2018-01-24T02:12:07.418Z,20.71
2018-01-24T02:12:39.045Z,20.68
2018-01-24T02:13:10.681Z,20.68
2018-01-24T02:13:42.302Z,20.66
2018-01-24T02:14:13.922Z,20.68
2018-01-24T02:14:45.541Z,20.66
2018-01-24T02:15:17.170Z,20.65
2018-01-24T02:15:48.794Z,20.67
2018-01-24T02:16:20.457Z,20.67
2018-01-24T02:16:52.078Z,20.67
2018-01-24T02:17:23.700Z,20.66
2018-01-24T02:17:55.317Z,20.66
2018-01-24T02:18:26.942Z,20.66
2018-01-24T02:18:59.157Z,20.66
2018-01-24T02:19:30.796Z,20.68
2018-01-24T02:20:02.445Z,20.67
2018-01-24T02:20:34.077Z,20.65
2018-01-24T02:21:05.698Z,20.66
2018-01-24T02:21:37.368Z,20.68
2018-01-24T02:22:08.989Z,20.65
2018-01-24T02:22:40.614Z,20.66
2018-01-24T02:23:12.233Z,20.64
2018-01-24T02:23:43.882Z,20.65
2018-01-24T02:24:15.510Z,20.64
2018-01-24T02:24:47.157Z,20.64
2018-01-24T02:25:18.806Z,20.63
2018-01-24T02:25:50.428Z,20.61
2018-01-24T02:26:22.063Z,20.61
2018-01-24T02:26:53.724Z,20.59
2018-01-24T02:27:25.357Z,20.60
2018-01-24T02:27:56.978Z,20.60
2018-01-24T02:28:28.630Z,20.59
2018-01-24T02:29:00.254Z,20.59
2018-01-24T02:29:31.912Z,20.61
2018-01-24T02:30:03.538Z,20.62
2018-01-24T02:30:35.166Z,20.64
2018-01-24T02:31:06.794Z,20.64
2018-01-24T02:31:38.418Z,20.64
2018-01-24T02:32:10.042Z,20.63
2018-01-24T02:32:41.671Z,20.66
2018-01-24T02:33:13.294Z,20.64
2018-01-24T02:33:44.918Z,20.63
2018-01-24T02:34:16.598Z,20.62
2018-01-24T02:34:48.222Z,20.61
2018-01-24T02:35:19.841Z,20.62
2018-01-24T02:35:51.466Z,20.61
2018-01-24T02:36:23.090Z,20.60
2018-01-24T02:36:54.983Z,20.59
2018-01-24T02:37:26.808Z,20.58
2018-01-24T02:37:58.633Z,20.59
2018-01-24T02:38:30.460Z,20.58
2018-01-24T02:39:02.285Z,20.60
2018-01-24T02:39:33.945Z,20.60
2018-01-24T02:40:05.545Z,20.61
2018-01-24T02:40:37.145Z,20.61
2018-01-24T02:41:08.786Z,20.59
2018-01-24T02:41:40.387Z,20.58
2018-01-24T02:42:11.986Z,20.58
2018-01-24T02:43:37.294Z,20.60
2018-01-24T02:44:08.894Z,20.61
2018-01-24T02:44:40.493Z,20.61
2018-01-24T02:45:12.094Z,20.62
2018-01-24T02:45:43.722Z,20.61
2018-01-24T02:46:15.563Z,20.61
2018-01-24T02:46:47.389Z,20.61
2018-01-24T02:47:19.316Z,20.59
2018-01-24T02:47:50.930Z,20.59
2018-01-24T02:48:22.534Z,20.59
2018-01-24T02:48:54.134Z,20.60
2018-01-24T02:49:25.734Z,20.62
2018-01-24T02:49:57.338Z,20.64
2018-01-24T02:50:28.934Z,20.63
2018-01-24T02:51:00.578Z,20.61
2018-01-24T02:51:32.173Z,20.62
2018-01-24T02:52:03.790Z,20.64
2018-01-24T02:52:35.427Z,20.63
2018-01-24T02:53:07.053Z,20.63
2018-01-24T02:53:38.673Z,20.63
2018-01-24T02:54:10.297Z,20.64
2018-01-24T02:54:41.917Z,20.62
2018-01-24T02:55:13.537Z,20.63
2018-01-24T02:55:45.163Z,20.62
2018-01-24T02:56:16.785Z,20.61
2018-01-24T02:56:48.418Z,20.62
2018-01-24T02:57:20.047Z,20.64
2018-01-24T02:57:51.673Z,20.64
2018-01-24T02:58:23.298Z,20.63
2018-01-24T02:58:54.921Z,20.67
2018-01-24T02:59:26.550Z,20.68
2018-01-24T02:59:58.174Z,20.66
2018-01-24T03:00:29.798Z,20.66
2018-01-24T03:01:01.430Z,20.68
2018-01-24T03:01:33.057Z,20.68
2018-01-24T03:02:04.686Z,20.71
2018-01-24T03:02:36.305Z,20.69
2018-01-24T03:03:07.926Z,20.73
2018-01-24T03:03:39.549Z,20.72
2018-01-24T03:04:11.178Z,20.72
2018-01-24T03:04:42.837Z,20.73
2018-01-24T03:05:14.457Z,20.72
2018-01-24T03:05:46.077Z,20.70
2018-01-24T03:06:17.705Z,20.70
2018-01-24T03:06:49.330Z,20.69
2018-01-24T03:07:20.953Z,20.68
2018-01-24T03:07:52.582Z,20.69
2018-01-24T03:08:24.205Z,20.66
2018-01-24T03:08:55.826Z,20.68
2018-01-24T03:09:27.449Z,20.68
2018-01-24T03:09:59.109Z,20.66
2018-01-24T03:10:30.734Z,20.64
2018-01-24T03:11:02.362Z,20.65
2018-01-24T03:11:33.986Z,20.64
2018-01-24T03:12:05.614Z,20.62
2018-01-24T03:12:37.242Z,20.62
2018-01-24T03:13:08.870Z,20.61
2018-01-24T03:13:40.533Z,20.61
2018-01-24T03:14:12.157Z,20.63
2018-01-24T03:14:43.825Z,20.63
2018-01-24T03:15:15.453Z,20.64
2018-01-24T03:15:47.072Z,20.65
2018-01-24T03:16:18.697Z,20.66
2018-01-24T03:16:50.321Z,20.66
2018-01-24T03:17:21.952Z,20.64
2018-01-24T03:17:53.635Z,20.68
2018-01-24T03:18:25.261Z,20.67
2018-01-24T03:18:56.886Z,20.66
2018-01-24T03:19:28.513Z,20.62
2018-01-24T03:20:00.181Z,20.64
2018-01-24T03:20:31.810Z,20.63
2018-01-24T03:21:03.433Z,20.63
2018-01-24T03:21:35.061Z,20.61
2018-01-24T03:22:06.681Z,20.60
2018-01-24T03:22:38.301Z,20.60
2018-01-24T03:23:09.930Z,20.64
2018-01-24T03:23:41.550Z,20.66
2018-01-24T03:24:13.173Z,20.67
2018-01-24T03:24:44.794Z,20.70
2018-01-24T03:25:16.477Z,20.70
2018-01-24T03:25:48.097Z,20.69
2018-01-24T03:26:19.726Z,20.71
2018-01-24T03:26:51.349Z,20.71
2018-01-24T03:27:22.996Z,20.71
2018-01-24T03:27:54.641Z,20.69
2018-01-24T03:28:26.265Z,20.68
2018-01-24T03:28:58.685Z,20.66
2018-01-24T03:29:30.310Z,20.64
2018-01-24T03:30:01.934Z,20.65
2018-01-24T03:30:33.560Z,20.65
2018-01-24T03:31:05.185Z,20.65
2018-01-24T03:31:36.810Z,20.62
2018-01-24T03:32:08.434Z,20.60
2018-01-24T03:32:40.062Z,20.58
2018-01-24T03:33:11.694Z,20.57
2018-01-24T03:33:43.323Z,20.57
2018-01-24T03:34:14.946Z,20.57
2018-01-24T03:34:46.578Z,20.57
2018-01-24T03:35:18.234Z,20.56
2018-01-24T03:35:49.857Z,20.57
2018-01-24T03:36:21.477Z,20.59
2018-01-24T03:36:53.098Z,20.59
2018-01-24T03:37:24.721Z,20.58
2018-01-24T03:37:56.351Z,20.56
2018-01-24T03:38:27.982Z,20.58
2018-01-24T03:38:59.642Z,20.57
2018-01-24T03:39:31.316Z,20.58
2018-01-24T03:40:02.946Z,20.57
2018-01-24T03:40:34.614Z,20.57
2018-01-24T03:41:06.258Z,20.59
2018-01-24T03:41:37.882Z,20.60
2018-01-24T03:42:09.510Z,20.60
2018-01-24T03:42:41.142Z,20.60
2018-01-24T03:43:12.766Z,20.60
2018-01-24T03:43:44.429Z,20.58
2018-01-24T03:44:16.054Z,20.58
2018-01-24T03:44:47.682Z,20.61
2018-01-24T03:45:19.305Z,20.62
2018-01-24T03:45:50.925Z,20.62
2018-01-24T03:46:22.549Z,20.61
2018-01-24T03:46:54.182Z,20.60
2018-01-24T03:47:25.809Z,20.63
2018-01-24T03:47:57.429Z,20.62
2018-01-24T03:48:29.050Z,20.64
2018-01-24T03:49:00.728Z,20.64
2018-01-24T03:49:32.370Z,20.62
2018-01-24T03:50:03.998Z,20.63
2018-01-24T03:50:35.630Z,20.62
2018-01-24T03:51:07.258Z,20.61
2018-01-24T03:51:38.886Z,20.63
2018-01-24T03:52:10.517Z,20.63
2018-01-24T03:52:42.142Z,20.64
2018-01-24T03:53:13.762Z,20.63
2018-01-24T03:53:45.386Z,20.63
2018-01-24T03:54:17.010Z,20.64
2018-01-24T03:54:48.633Z,20.63
2018-01-24T03:55:20.265Z,20.62
2018-01-24T03:55:51.885Z,20.62
2018-01-24T03:56:23.510Z,20.63
2018-01-24T03:56:55.130Z,20.63
2018-01-24T03:57:26.753Z,20.63
2018-01-24T03:57:58.426Z,20.63
2018-01-24T03:58:30.058Z,20.63
2018-01-24T03:59:01.681Z,20.62
2018-01-24T03:59:33.306Z,20.61
2018-01-24T04:00:04.934Z,20.62
2018-01-24T04:00:36.553Z,20.62
2018-01-24T04:01:08.178Z,20.61
2018-01-24T04:01:39.801Z,20.63
2018-01-24T04:02:11.426Z,20.60
2018-01-24T04:02:43.057Z,20.63
2018-01-24T04:03:14.681Z,20.60
2018-01-24T04:03:46.314Z,20.60
2018-01-24T04:04:17.937Z,20.60
2018-01-24T04:04:49.558Z,20.62
2018-01-24T04:05:21.186Z,20.61
2018-01-24T04:05:52.810Z,20.62
2018-01-24T04:06:24.430Z,20.64
2018-01-24T04:06:56.058Z,20.66
2018-01-24T04:07:27.685Z,20.67
2018-01-24T04:07:59.308Z,20.69
2018-01-24T04:08:30.936Z,20.68
2018-01-24T04:09:02.590Z,20.70
2018-01-24T04:09:34.213Z,20.69
2018-01-24T04:10:05.837Z,20.72
2018-01-24T04:10:37.466Z,20.71
2018-01-24T04:11:09.129Z,20.70
2018-01-24T04:11:40.750Z,20.70
2018-01-24T04:12:12.382Z,20.71
2018-01-24T04:12:44.002Z,20.71
2018-01-24T04:13:15.629Z,20.71
2018-01-24T04:13:47.253Z,20.71
2018-01-24T04:14:18.874Z,20.70
2018-01-24T04:14:50.497Z,20.71
2018-01-24T04:15:22.128Z,20.70
2018-01-24T04:15:53.787Z,20.71
2018-01-24T04:16:25.409Z,20.69
2018-01-24T04:16:57.033Z,20.70
2018-01-24T04:17:28.653Z,20.69
2018-01-24T04:18:00.273Z,20.70
2018-01-24T04:18:31.941Z,20.73
2018-01-24T04:19:03.584Z,20.74
2018-01-24T04:19:35.209Z,20.73
2018-01-24T04:20:06.829Z,20.74
2018-01-24T04:20:38.454Z,20.72
2018-01-24T04:21:10.079Z,20.71
2018-01-24T04:21:41.702Z,20.72
2018-01-24T04:22:13.326Z,20.71
2018-01-24T04:22:44.954Z,20.72
2018-01-24T04:23:16.573Z,20.70
2018-01-24T04:23:48.246Z,20.71
2018-01-24T04:24:19.912Z,20.70
2018-01-24T04:24:51.538Z,20.70
2018-01-24T04:25:23.157Z,20.73
2018-01-24T04:25:54.782Z,20.75
2018-01-24T04:26:26.409Z,20.73
2018-01-24T04:26:58.029Z,20.74
2018-01-24T04:27:29.649Z,20.72
2018-01-24T04:28:01.313Z,20.71
2018-01-24T04:28:32.933Z,20.71
2018-01-24T04:29:04.562Z,20.72
2018-01-24T04:29:36.191Z,20.71
2018-01-24T04:30:07.818Z,20.71
2018-01-24T04:30:39.437Z,20.70
2018-01-24T04:31:11.061Z,20.70
2018-01-24T04:31:42.717Z,20.71
2018-01-24T04:32:14.341Z,20.69
2018-01-24T04:32:45.957Z,20.71
2018-01-24T04:33:17.621Z,20.69
2018-01-24T04:33:49.241Z,20.69
2018-01-24T04:34:20.861Z,20.67
2018-01-24T04:34:52.482Z,20.66
2018-01-24T04:35:24.166Z,20.65
2018-01-24T04:35:55.785Z,20.62
2018-01-24T04:36:27.417Z,20.62
2018-01-24T04:36:59.037Z,20.64
2018-01-24T04:37:30.657Z,20.64
2018-01-24T04:38:02.274Z,20.66
2018-01-24T04:38:33.902Z,20.67
2018-01-24T04:39:05.529Z,20.68
2018-01-24T04:39:37.149Z,20.69
2018-01-24T04:40:08.818Z,20.68
2018-01-24T04:40:40.445Z,20.70
2018-01-24T04:41:12.097Z,20.71
2018-01-24T04:41:43.734Z,20.69
2018-01-24T04:42:15.367Z,20.68
2018-01-24T04:42:47.001Z,20.67
2018-01-24T04:43:18.626Z,20.67
2018-01-24T04:43:50.294Z,20.64
2018-01-24T04:44:21.926Z,20.63
2018-01-24T04:44:53.570Z,20.64
2018-01-24T04:45:25.262Z,20.62
2018-01-24T04:45:56.889Z,20.62
2018-01-24T04:46:28.510Z,20.62
2018-01-24T04:47:00.138Z,20.62
2018-01-24T04:47:31.765Z,20.62
2018-01-24T04:48:03.389Z,20.62
2018-01-24T04:48:35.010Z,20.61
2018-01-24T04:49:06.633Z,20.61
2018-01-24T04:49:38.298Z,20.61
2018-01-24T04:50:09.938Z,20.62
2018-01-24T04:50:41.577Z,20.64
2018-01-24T04:51:13.222Z,20.64
2018-01-24T04:51:44.861Z,20.66
2018-01-24T04:52:16.481Z,20.64
2018-01-24T04:52:48.101Z,20.62
2018-01-24T04:53:19.721Z,20.62
2018-01-24T04:53:51.346Z,20.60
2018-01-24T04:54:22.969Z,20.59
2018-01-24T04:54:54.630Z,20.58
2018-01-24T04:55:26.249Z,20.58
2018-01-24T04:55:57.873Z,20.61
2018-01-24T04:56:29.552Z,20.62
2018-01-24T04:57:01.189Z,20.60
2018-01-24T04:57:32.833Z,20.61
2018-01-24T04:58:04.485Z,20.61
2018-01-24T04:58:36.126Z,20.61
2018-01-24T04:59:07.778Z,20.62
2018-01-24T04:59:39.421Z,20.63
2018-01-24T05:00:11.062Z,20.64
2018-01-24T05:00:42.706Z,20.62
2018-01-24T05:01:14.397Z,20.62
2018-01-24T05:01:46.085Z,20.61
2018-01-24T05:02:17.721Z,20.62
2018-01-24T05:02:49.366Z,20.63
2018-01-24T05:03:20.989Z,20.61
2018-01-24T05:03:52.638Z,20.62
2018-01-24T05:04:24.273Z,20.62
2018-01-24T05:04:55.910Z,20.61
2018-01-24T05:05:27.537Z,20.60
2018-01-24T05:05:59.166Z,20.62
2018-01-24T05:06:30.789Z,20.61
2018-01-24T05:07:02.436Z,20.60
2018-01-24T05:07:34.159Z,20.60
2018-01-24T05:08:05.809Z,20.61
2018-01-24T05:08:37.466Z,20.61
2018-01-24T05:09:09.101Z,20.62
2018-01-24T05:09:40.750Z,20.62
2018-01-24T05:10:12.437Z,20.61
2018-01-24T05:10:44.073Z,20.60
2018-01-24T05:11:15.721Z,20.58
2018-01-24T05:11:47.370Z,20.60
2018-01-24T05:12:19.014Z,20.59
2018-01-24T05:12:50.661Z,20.58
2018-01-24T05:13:22.305Z,20.58
2018-01-24T05:13:53.990Z,20.62
2018-01-24T05:14:25.637Z,20.62
2018-01-24T05:14:57.295Z,20.62
2018-01-24T05:15:28.933Z,20.64
2018-01-24T05:16:00.578Z,20.67
2018-01-24T05:16:32.212Z,20.65
2018-01-24T05:17:03.850Z,20.65
2018-01-24T05:17:35.480Z,20.67
2018-01-24T05:18:07.101Z,20.68
2018-01-24T05:18:38.726Z,20.66
2018-01-24T05:19:10.417Z,20.64
2018-01-24T05:19:42.062Z,20.65
2018-01-24T05:20:13.706Z,20.67
2018-01-24T05:20:48.094Z,20.68
2018-01-24T05:21:20.373Z,20.66
2018-01-24T05:21:52.070Z,20.67
2018-01-24T05:22:23.721Z,20.65
2018-01-24T05:22:55.365Z,20.62
2018-01-24T05:23:26.986Z,20.61
2018-01-24T05:23:58.605Z,20.62
2018-01-24T05:24:30.294Z,20.65
2018-01-24T05:25:01.922Z,20.65
2018-01-24T05:25:33.549Z,20.66
2018-01-24T05:26:05.170Z,20.68
2018-01-24T05:26:36.789Z,20.71
2018-01-24T05:27:08.414Z,20.72
2018-01-24T05:27:40.042Z,20.72
2018-01-24T05:28:11.669Z,20.73
2018-01-24T05:28:43.297Z,20.73
2018-01-24T05:29:14.922Z,20.75
2018-01-24T05:29:46.585Z,20.74
2018-01-24T05:30:18.206Z,20.75
2018-01-24T05:30:49.834Z,20.73
2018-01-24T05:31:21.457Z,20.72
2018-01-24T05:31:53.086Z,20.72
2018-01-24T05:32:24.713Z,20.73
2018-01-24T05:32:56.333Z,20.73
2018-01-24T05:33:27.962Z,20.75
2018-01-24T05:33:59.589Z,20.70
2018-01-24T05:34:31.209Z,20.71
2018-01-24T05:35:02.874Z,20.74
2018-01-24T05:35:34.498Z,20.70
2018-01-24T05:36:06.126Z,20.70
2018-01-24T05:36:37.749Z,20.69
2018-01-24T05:37:09.370Z,20.71
2018-01-24T05:37:40.993Z,20.70
2018-01-24T05:38:12.618Z,20.69
2018-01-24T05:38:44.237Z,20.66
2018-01-24T05:39:15.881Z,20.65
2018-01-24T05:39:47.545Z,20.64
2018-01-24T05:40:19.219Z,20.64
2018-01-24T05:40:50.842Z,20.65
2018-01-24T05:41:22.465Z,20.64
2018-01-24T05:41:54.094Z,20.61
2018-01-24T05:42:25.741Z,20.61
2018-01-24T05:42:57.362Z,20.56
2018-01-24T05:43:28.986Z,20.56
2018-01-24T05:44:00.614Z,20.56
2018-01-24T05:44:32.241Z,20.55
2018-01-24T05:45:03.889Z,20.51
2018-01-24T05:45:35.558Z,20.50
2018-01-24T05:46:07.230Z,20.52
2018-01-24T05:46:38.856Z,20.50
2018-01-24T05:47:10.481Z,20.48
2018-01-24T05:47:42.106Z,20.48
2018-01-24T05:48:13.729Z,20.47
2018-01-24T05:48:45.354Z,20.48
2018-01-24T05:49:16.978Z,20.46
2018-01-24T05:49:48.609Z,20.47
2018-01-24T05:50:20.245Z,20.45
2018-01-24T05:50:51.871Z,20.46
2018-01-24T05:51:23.541Z,20.47
2018-01-24T05:51:55.162Z,20.48
2018-01-24T05:52:26.781Z,20.48
2018-01-24T05:52:58.402Z,20.49
2018-01-24T05:53:30.030Z,20.48
2018-01-24T05:54:01.677Z,20.49
2018-01-24T05:54:33.306Z,20.48
2018-01-24T05:55:04.933Z,20.47
2018-01-24T05:55:36.562Z,20.50
2018-01-24T05:56:08.233Z,20.48
2018-01-24T05:56:39.853Z,20.49
2018-01-24T05:57:11.477Z,20.50
2018-01-24T05:57:43.101Z,20.50
2018-01-24T05:58:14.725Z,20.49
2018-01-24T05:58:46.350Z,20.49
2018-01-24T05:59:17.974Z,20.51
2018-01-24T05:59:49.601Z,20.51
2018-01-24T06:00:21.225Z,20.52
2018-01-24T06:00:52.885Z,20.52
2018-01-24T06:01:24.554Z,20.51
2018-01-24T06:01:56.222Z,20.51
2018-01-24T06:02:27.843Z,20.51
2018-01-24T06:02:59.461Z,20.53
2018-01-24T06:03:31.089Z,20.53
2018-01-24T06:04:02.718Z,20.52
2018-01-24T06:04:34.337Z,20.51
2018-01-24T06:05:05.962Z,20.52
2018-01-24T06:05:37.585Z,20.51
2018-01-24T06:06:09.211Z,20.54
2018-01-24T06:06:40.829Z,20.54
2018-01-24T06:07:12.493Z,20.54
2018-01-24T06:07:44.122Z,20.55
2018-01-24T06:08:15.744Z,20.54
2018-01-24T06:08:47.370Z,20.56
2018-01-24T06:09:18.994Z,20.57
2018-01-24T06:09:50.622Z,20.57
2018-01-24T06:10:22.246Z,20.58
2018-01-24T06:10:53.875Z,20.58
2018-01-24T06:11:25.502Z,20.59
2018-01-24T06:11:57.177Z,20.61
2018-01-24T06:12:28.811Z,20.60
2018-01-24T06:13:00.433Z,20.59
2018-01-24T06:13:32.053Z,20.57
2018-01-24T06:14:03.678Z,20.56
2018-01-24T06:14:35.302Z,20.58
2018-01-24T06:15:06.925Z,20.59
2018-01-24T06:15:38.549Z,20.61
2018-01-24T06:16:10.169Z,20.62
2018-01-24T06:16:41.793Z,20.60
2018-01-24T06:17:13.478Z,20.62
2018-01-24T06:17:45.107Z,20.60
2018-01-24T06:18:16.738Z,20.62
2018-01-24T06:18:48.358Z,20.62
2018-01-24T06:19:19.981Z,20.63
2018-01-24T06:19:51.606Z,20.64
2018-01-24T06:20:23.234Z,20.66
2018-01-24T06:20:54.861Z,20.66
2018-01-24T06:21:26.483Z,20.64
2018-01-24T06:21:58.109Z,20.56
2018-01-24T06:22:29.770Z,20.63
2018-01-24T06:23:01.393Z,20.66
2018-01-24T06:23:33.021Z,20.68
2018-01-24T06:24:04.646Z,20.69
2018-01-24T06:24:36.278Z,20.70
2018-01-24T06:25:07.902Z,20.70
2018-01-24T06:25:39.581Z,20.70
2018-01-24T06:26:11.200Z,20.70
2018-01-24T06:26:42.824Z,20.70
2018-01-24T06:27:14.445Z,20.69
2018-01-24T06:27:46.065Z,20.68
2018-01-24T06:28:17.690Z,20.69
2018-01-24T06:28:49.319Z,20.68
2018-01-24T06:29:20.946Z,20.68
2018-01-24T06:29:52.585Z,20.70
2018-01-24T06:30:24.206Z,20.69
2018-01-24T06:30:55.886Z,20.69
2018-01-24T06:31:27.514Z,20.70
2018-01-24T06:31:59.138Z,20.72
2018-01-24T06:32:30.801Z,20.70
2018-01-24T06:33:02.430Z,20.70
2018-01-24T06:33:34.053Z,20.68
2018-01-24T06:34:05.676Z,20.68
2018-01-24T06:34:37.297Z,20.68
2018-01-24T06:35:08.921Z,20.65
2018-01-24T06:35:40.580Z,20.66
2018-01-24T06:36:12.245Z,20.68
2018-01-24T06:36:43.870Z,20.66
2018-01-24T06:37:15.489Z,20.65
2018-01-24T06:37:47.119Z,20.65
2018-01-24T06:38:18.750Z,20.66
2018-01-24T06:38:50.409Z,20.68
2018-01-24T06:39:22.038Z,20.68
2018-01-24T06:39:53.657Z,20.67
2018-01-24T06:40:25.282Z,20.65
2018-01-24T06:40:56.970Z,20.66
2018-01-24T06:41:28.593Z,20.66
2018-01-24T06:42:00.218Z,20.68
2018-01-24T06:42:31.841Z,20.68
2018-01-24T06:43:03.466Z,20.68
2018-01-24T06:43:35.090Z,20.68
2018-01-24T06:44:06.710Z,20.68
2018-01-24T06:44:38.338Z,20.71
2018-01-24T06:45:09.962Z,20.72
2018-01-24T06:45:41.590Z,20.70
2018-01-24T06:46:13.250Z,20.70
2018-01-24T06:46:44.870Z,20.70
2018-01-24T06:47:16.530Z,20.71
2018-01-24T06:47:48.271Z,20.71
2018-01-24T06:48:19.861Z,20.71
2018-01-24T06:48:51.481Z,20.70
2018-01-24T06:49:23.114Z,20.70
2018-01-24T06:49:54.749Z,20.68
2018-01-24T06:50:26.377Z,20.67
2018-01-24T06:50:58.002Z,20.67
2018-01-24T06:51:29.670Z,20.68
2018-01-24T06:52:01.294Z,20.66
2018-01-24T06:52:32.918Z,20.64
2018-01-24T06:53:04.550Z,20.63
2018-01-24T06:53:36.171Z,20.62
2018-01-24T06:54:07.793Z,20.62
2018-01-24T06:54:39.417Z,20.64
2018-01-24T06:55:11.041Z,20.64
2018-01-24T06:55:42.666Z,20.64